Terminal Aerodrome Forecast
Issued by NWS

Home | Current Version | Previous Version | Text Only | Print | Product List | Glossary On
Versions: 1 2 3 4 5 6 7 8 9 10 11 12 13 14 15 16 17
000
FTUS43 KGRR 300520
TAFMKG
TAF
KMKG 300520Z 3006/0106 15003KT P6SM SCT200
     FM301000 17004KT 4SM BR VCSH OVC015
     FM301400 20007KT P6SM VCTS BKN035CB
     FM010000 29007KT P6SM VCSH BKN035=

USA.gov is the U.S. government's official web portal to all federal, state and local government web resources and services.